Time;durP1;ratioP1;P1;durP2;ratioP2;P2;SDS_P1;SDS_P2;PMS_P1;PMS_P2;Temp;Humidity;BMP_temperature;BMP_pressure;BME280_temperature;BME280_humidity;BME280_pressure;Samples;Min_cycle;Max_cycle;Signal;HPM_P1;HPM_P2
2022/12/15 00:41:01;;;;;;;1.03;0.80;;;-1.90;99.90;;;;;;5024413;28;20163;-76
2022/12/15 00:43:28;;;;;;;1.23;1.00;;;-2.00;99.90;;;;;;5025106;28;20141;-75
2022/12/15 00:48:39;;;;;;;0.83;0.83;;;-2.00;99.90;;;;;;5024834;28;20061;-75
2022/12/15 00:51:05;;;;;;;1.30;1.10;;;-2.00;99.90;;;;;;5040211;28;20411;-75
2022/12/15 01:20:59;;;;;;;0.87;0.50;;;-2.00;99.90;;;;;;5024043;28;20136;-76
2022/12/15 01:23:25;;;;;;;0.50;0.40;;;-2.00;99.90;;;;;;5023690;28;20045;-76
2022/12/15 01:25:52;;;;;;;1.47;0.83;;;-1.90;99.90;;;;;;5024115;28;20056;-76
2022/12/15 01:28:19;;;;;;;2.57;0.90;;;-1.90;99.90;;;;;;5024249;28;20048;-75
2022/12/15 01:30:45;;;;;;;6.17;1.40;;;-1.80;99.90;;;;;;5024572;28;20097;-75
2022/12/15 01:33:11;;;;;;;2.63;0.97;;;-1.80;99.90;;;;;;5023735;28;20042;-75
2022/12/15 01:35:37;;;;;;;1.30;0.80;;;-1.80;99.90;;;;;;5024290;28;20103;-75
2022/12/15 01:38:03;;;;;;;2.97;0.70;;;-1.80;99.90;;;;;;5022820;28;20087;-75
2022/12/15 01:40:44;;;;;;;0.70;0.50;;;-1.70;99.90;;;;;;5005898;28;20052;-75
2022/12/15 01:43:34;;;;;;;1.40;0.70;;;-1.70;99.90;;;;;;5024084;28;20053;-75
2022/12/15 01:46:01;;;;;;;3.27;0.70;;;-1.60;99.90;;;;;;5011400;28;20057;-75
2022/12/15 01:48:36;;;;;;;3.13;1.43;;;-1.50;99.90;;;;;;5006124;28;20077;-76
2022/12/15 01:51:13;;;;;;;1.87;0.93;;;-1.40;99.90;;;;;;5005671;28;20045;-75
2022/12/15 01:53:49;;;;;;;1.10;0.60;;;-1.40;99.90;;;;;;5022839;28;20079;-75
2022/12/15 01:56:15;;;;;;;2.30;1.20;;;-1.20;99.90;;;;;;5024234;28;20425;-75
2022/12/15 01:58:43;;;;;;;4.40;1.57;;;-1.10;99.90;;;;;;5023131;28;20559;-75
2022/12/15 02:01:09;;;;;;;3.20;2.10;;;-1.10;99.90;;;;;;5023528;28;20053;-75
2022/12/15 02:03:36;;;;;;;13.27;0.80;;;-1.00;99.90;;;;;;5022944;28;20045;-75
2022/12/15 02:06:02;;;;;;;4.20;0.97;;;-1.10;99.90;;;;;;5007387;28;20354;-75
2022/12/15 02:08:29;;;;;;;0.80;0.67;;;-1.10;99.90;;;;;;5022443;28;20044;-75
2022/12/15 02:11:20;;;;;;;3.13;0.93;;;-1.10;99.90;;;;;;5006089;28;20041;-75
2022/12/15 02:13:59;;;;;;;3.43;0.90;;;-1.10;99.90;;;;;;5004284;28;20108;-75
2022/12/15 02:17:06;;;;;;;1.90;0.80;;;-1.10;99.90;;;;;;4994488;28;20053;-76
2022/12/15 02:19:49;;;;;;;1.13;0.90;;;-1.20;99.90;;;;;;5023450;28;20068;-75
2022/12/15 02:22:45;;;;;;;1.87;0.97;;;-1.20;99.90;;;;;;5022087;28;20044;-75
2022/12/15 02:25:28;;;;;;;1.33;0.83;;;-1.20;99.90;;;;;;5022857;28;20049;-75
2022/12/15 02:28:30;;;;;;;1.67;1.10;;;-1.30;99.90;;;;;;5022736;28;20555;-75
2022/12/15 02:34:12;;;;;;;2.60;0.90;;;-1.30;99.90;;;;;;5022539;28;20176;-76
2022/12/15 02:36:42;;;;;;;1.20;0.70;;;-1.30;99.90;;;;;;5022146;28;20041;-75
2022/12/15 02:39:11;;;;;;;1.93;0.93;;;-1.30;99.90;;;;;;5022387;28;20053;-75
2022/12/15 02:41:42;;;;;;;1.63;0.63;;;-1.40;99.90;;;;;;5022961;28;20045;-75
2022/12/15 02:44:11;;;;;;;0.30;0.30;;;-1.30;99.90;;;;;;5022546;28;20041;-75
2022/12/15 02:46:58;;;;;;;0.43;0.40;;;-1.30;99.90;;;;;;5023213;28;20041;-75
2022/12/15 02:49:44;;;;;;;2.80;1.57;;;-1.30;99.90;;;;;;5005053;28;20126;-76
2022/12/15 02:52:23;;;;;;;2.73;1.00;;;-1.40;99.90;;;;;;5021668;28;20049;-75
2022/12/15 02:55:10;;;;;;;16.07;2.37;;;-1.30;99.90;;;;;;5022632;28;20084;-76
2022/12/15 02:57:52;;;;;;;0.97;0.47;;;-1.30;99.90;;;;;;5022576;28;20045;-75
2022/12/15 03:00:18;;;;;;;;;;;-1.30;99.90;;;;;;5005884;28;20486;-75
2022/12/15 03:02:49;;;;;;;4.00;0.73;;;-1.20;99.90;;;;;;5023438;28;19928;-75
2022/12/15 03:05:16;;;;;;;8.00;2.37;;;-1.30;99.90;;;;;;5022571;28;20045;-75
2022/12/15 03:07:42;;;;;;;1.70;0.63;;;-1.30;99.90;;;;;;5021374;28;20121;-75
2022/12/15 03:10:12;;;;;;;4.53;1.63;;;-1.30;99.90;;;;;;5022229;28;20120;-75
2022/12/15 03:12:38;;;;;;;0.70;0.30;;;-1.30;99.90;;;;;;5021821;28;20042;-76
2022/12/15 03:15:04;;;;;;;1.70;0.60;;;-1.30;99.90;;;;;;5022317;28;20037;-76
2022/12/15 03:17:30;;;;;;;1.10;0.53;;;-1.40;99.90;;;;;;5022565;28;20049;-76
2022/12/15 03:19:56;;;;;;;0.77;0.77;;;-1.40;99.90;;;;;;5022177;28;20046;-76
2022/12/15 03:22:21;;;;;;;0.70;0.37;;;-1.40;99.90;;;;;;5021519;28;20050;-76
2022/12/15 03:24:47;;;;;;;2.30;0.43;;;-1.40;99.90;;;;;;5022699;28;20396;-76
2022/12/15 03:27:13;;;;;;;0.90;0.70;;;-1.40;99.90;;;;;;5004872;28;20096;-76
2022/12/15 03:29:39;;;;;;;10.03;0.80;;;-1.50;99.90;;;;;;5022917;28;20144;-75
2022/12/15 03:32:05;;;;;;;3.03;0.90;;;-1.40;99.90;;;;;;5021973;28;20049;-75
2022/12/15 03:34:30;;;;;;;0.87;0.87;;;-1.50;99.90;;;;;;5022224;28;20037;-76
2022/12/15 03:36:56;;;;;;;0.30;0.30;;;-1.40;99.90;;;;;;5021254;28;20167;-75
2022/12/15 03:39:21;;;;;;;2.60;1.17;;;-1.50;99.90;;;;;;5022326;28;20500;-75
2022/12/15 03:41:47;;;;;;;2.33;0.80;;;-1.40;99.90;;;;;;5022843;28;20034;-75
2022/12/15 03:44:13;;;;;;;3.90;0.70;;;-1.40;99.90;;;;;;5021839;28;20053;-76
2022/12/15 03:46:38;;;;;;;5.53;1.33;;;-1.40;99.90;;;;;;5022157;28;20567;-75
2022/12/15 03:49:04;;;;;;;0.47;0.47;;;-1.50;99.90;;;;;;5021894;28;20042;-75
2022/12/15 03:51:30;;;;;;;1.43;0.40;;;-1.50;99.90;;;;;;5021172;28;20053;-75
2022/12/15 03:53:57;;;;;;;2.50;0.67;;;-1.50;99.90;;;;;;5021770;28;20033;-75
2022/12/15 03:56:23;;;;;;;0.87;0.67;;;-1.40;99.90;;;;;;5004477;28;20607;-76
2022/12/15 03:58:49;;;;;;;1.67;1.33;;;-1.50;99.90;;;;;;5021753;28;20045;-76
2022/12/15 04:01:30;;;;;;;1.10;0.50;;;-1.50;99.90;;;;;;5022486;28;20476;-75
2022/12/15 04:03:57;;;;;;;0.90;0.50;;;-1.50;99.90;;;;;;5021467;28;20060;-76
2022/12/15 04:06:22;;;;;;;1.17;1.03;;;-1.50;99.90;;;;;;5005027;28;20038;-75
2022/12/15 04:08:48;;;;;;;1.97;0.80;;;-1.50;99.90;;;;;;5002279;28;20049;-75
2022/12/15 04:11:14;;;;;;;1.67;0.80;;;-1.50;99.90;;;;;;4986861;28;20045;-75
2022/12/15 04:13:40;;;;;;;2.77;0.77;;;-1.50;99.90;;;;;;5022078;28;20151;-75
2022/12/15 04:16:06;;;;;;;2.73;2.10;;;-1.50;99.90;;;;;;5021403;28;20057;-75
2022/12/15 04:18:31;;;;;;;3.60;0.80;;;-1.50;99.90;;;;;;5025599;28;20534;-75
2022/12/15 04:20:57;;;;;;;4.47;1.27;;;-1.50;99.90;;;;;;5025574;28;20045;-75
2022/12/15 04:23:23;;;;;;;2.33;1.73;;;-1.40;99.90;;;;;;5024172;28;20036;-76
2022/12/15 05:31:55;;;;;;;4.17;2.03;;;-1.00;99.90;;;;;;5024040;28;20056;-75
2022/12/15 05:34:26;;;;;;;2.00;1.03;;;-1.00;99.90;;;;;;5024168;28;20404;-75
2022/12/15 05:36:55;;;;;;;3.57;1.40;;;-1.00;99.90;;;;;;5022856;28;20038;-76
2022/12/15 05:39:22;;;;;;;3.37;1.60;;;-1.00;99.90;;;;;;5005550;28;20400;-75
2022/12/15 05:41:53;;;;;;;4.27;2.27;;;-1.00;99.90;;;;;;5023309;28;20480;-75
2022/12/15 05:44:18;;;;;;;3.83;1.03;;;-1.00;99.90;;;;;;5023665;28;20053;-76
2022/12/15 05:46:47;;;;;;;3.00;0.70;;;-1.00;99.90;;;;;;4990433;28;20509;-75
2022/12/15 05:49:15;;;;;;;7.53;1.10;;;-1.00;99.90;;;;;;5006306;28;20134;-75
2022/12/15 05:51:42;;;;;;;6.23;1.40;;;-1.00;99.90;;;;;;5022926;28;20476;-76
2022/12/15 05:54:10;;;;;;;4.60;1.23;;;-1.00;99.90;;;;;;5023478;28;20686;-76
2022/12/15 05:56:36;;;;;;;1.50;0.80;;;-0.90;99.90;;;;;;5023139;28;20045;-76
2022/12/15 05:59:03;;;;;;;2.17;1.00;;;-1.00;99.90;;;;;;5023520;28;20499;-76
2022/12/15 06:01:30;;;;;;;2.27;1.20;;;-1.00;99.90;;;;;;5023885;28;20041;-76
2022/12/15 06:03:57;;;;;;;2.27;1.80;;;-0.90;99.90;;;;;;5005733;28;20041;-76
2022/12/15 06:06:22;;;;;;;11.17;1.33;;;-1.00;99.90;;;;;;5022912;28;20049;-75
2022/12/15 06:08:48;;;;;;;4.20;1.00;;;-0.90;99.90;;;;;;5005445;28;20041;-76
2022/12/15 06:11:16;;;;;;;2.10;1.87;;;-0.90;99.90;;;;;;5023453;28;20041;-76
2022/12/15 06:13:42;;;;;;;2.27;1.60;;;-0.90;99.90;;;;;;5023649;28;20765;-76
2022/12/15 06:16:14;;;;;;;8.40;1.83;;;-1.00;99.90;;;;;;5020948;28;20056;-77
2022/12/15 06:18:42;;;;;;;2.35;1.92;;;-0.90;99.90;;;;;;5022674;28;20059;-77
2022/12/15 06:21:11;;;;;;;2.50;2.30;;;-0.90;99.90;;;;;;5004027;28;20037;-77
2022/12/15 06:23:37;;;;;;;2.23;1.53;;;-0.90;99.90;;;;;;5004740;28;20077;-75
2022/12/15 06:26:26;;;;;;;4.03;1.93;;;-0.90;99.90;;;;;;5022554;28;20045;-76
2022/12/15 06:28:54;;;;;;;16.43;3.13;;;-0.90;99.90;;;;;;5019953;28;20414;-76
2022/12/15 06:31:21;;;;;;;2.30;1.37;;;-0.80;99.90;;;;;;5022442;28;20723;-77
2022/12/15 06:33:48;;;;;;;4.13;1.70;;;-0.80;99.90;;;;;;5023196;28;20053;-76
2022/12/15 06:36:15;;;;;;;2.20;1.33;;;-0.80;99.90;;;;;;4987607;28;20391;-76
2022/12/15 06:38:44;;;;;;;7.20;1.33;;;-0.80;99.90;;;;;;5020713;28;20539;-77
2022/12/15 06:41:15;;;;;;;8.00;3.30;;;-0.80;99.90;;;;;;5021930;28;20037;-78
2022/12/15 06:43:41;;;;;;;7.00;1.57;;;-0.80;99.90;;;;;;5018258;28;20096;-78
2022/12/15 06:46:08;;;;;;;1.43;1.13;;;-0.70;99.90;;;;;;5018297;28;20037;-78
2022/12/15 06:48:34;;;;;;;24.93;2.97;;;-0.80;99.90;;;;;;5021592;28;20124;-78
2022/12/15 06:51:07;;;;;;;9.80;1.90;;;-0.70;99.90;;;;;;5021875;28;20128;-78
2022/12/15 06:53:36;;;;;;;7.30;1.77;;;-0.70;99.90;;;;;;5020511;28;20598;-78
2022/12/15 06:56:05;;;;;;;6.47;1.80;;;-0.70;99.90;;;;;;5021924;28;20042;-78
2022/12/15 06:58:31;;;;;;;2.50;1.33;;;-0.70;99.90;;;;;;5021783;28;20123;-78
2022/12/15 07:00:57;;;;;;;7.30;2.77;;;-0.70;99.90;;;;;;5020960;28;20061;-78
2022/12/15 07:03:23;;;;;;;3.07;1.13;;;-0.70;99.90;;;;;;5034586;28;20052;-78
2022/12/15 07:06:03;;;;;;;4.07;1.90;;;-0.70;99.90;;;;;;5030897;28;20041;-79
2022/12/15 07:08:29;;;;;;;4.80;1.43;;;-0.60;99.90;;;;;;5021452;28;20246;-78
2022/12/15 07:10:55;;;;;;;1.53;1.27;;;-0.60;99.90;;;;;;5020964;28;20623;-78
2022/12/15 07:13:20;;;;;;;8.47;1.50;;;-0.60;99.90;;;;;;5031086;28;20040;-78
2022/12/15 07:15:48;;;;;;;6.80;1.27;;;-0.50;99.90;;;;;;5024206;28;20496;-78
2022/12/15 07:18:15;;;;;;;7.60;4.47;;;-0.50;99.90;;;;;;5020442;28;20053;-77
2022/12/15 07:20:41;;;;;;;8.40;1.67;;;-0.50;99.90;;;;;;5021347;28;20121;-78
2022/12/15 07:23:08;;;;;;;3.43;1.57;;;-0.50;99.90;;;;;;5021240;28;20033;-78
2022/12/15 07:25:38;;;;;;;5.87;3.13;;;-0.40;99.90;;;;;;5023405;28;20080;-78
2022/12/15 07:28:04;;;;;;;2.77;2.53;;;-0.40;99.90;;;;;;5030650;28;20037;-77
2022/12/15 07:30:31;;;;;;;4.20;1.77;;;-0.30;99.90;;;;;;5021745;28;20041;-77
2022/12/15 07:32:56;;;;;;;13.27;3.13;;;-0.40;99.90;;;;;;5020536;28;20049;-77
2022/12/15 07:35:22;;;;;;;5.17;2.17;;;-0.30;99.90;;;;;;5021051;28;20710;-78
2022/12/15 07:37:48;;;;;;;2.43;1.73;;;-0.30;99.90;;;;;;5020733;28;20463;-78
2022/12/15 07:40:13;;;;;;;2.30;1.40;;;-0.30;99.90;;;;;;5020837;28;20096;-77
2022/12/15 07:42:39;;;;;;;18.67;2.20;;;-0.30;99.90;;;;;;5020786;28;20140;-77
2022/12/15 07:45:06;;;;;;;1.67;1.57;;;-0.30;99.90;;;;;;5020339;28;20077;-78
2022/12/15 07:47:32;;;;;;;1.67;1.10;;;-0.20;99.90;;;;;;5020903;28;20072;-77
2022/12/15 07:49:57;;;;;;;2.80;1.47;;;-0.30;99.90;;;;;;5021063;28;20548;-77
2022/12/15 07:52:23;;;;;;;5.17;2.50;;;-0.30;99.90;;;;;;5023395;28;20042;-77
2022/12/15 07:54:49;;;;;;;2.90;1.80;;;-0.30;99.90;;;;;;5024447;28;20041;-78
2022/12/15 07:57:15;;;;;;;5.03;2.70;;;-0.30;99.90;;;;;;5025347;28;20112;-77
2022/12/15 07:59:41;;;;;;;4.70;2.33;;;-0.30;99.90;;;;;;5007141;28;20042;-77
2022/12/15 08:02:09;;;;;;;4.67;3.70;;;-0.30;99.90;;;;;;5024057;28;20073;-77
2022/12/15 08:04:35;;;;;;;4.07;1.60;;;-0.20;99.90;;;;;;5024789;28;20499;-77
2022/12/15 08:07:00;;;;;;;8.60;1.50;;;-0.20;99.90;;;;;;5023368;28;20081;-77
2022/12/15 08:09:26;;;;;;;3.37;1.77;;;-0.10;99.90;;;;;;5024166;28;20045;-77
2022/12/15 08:11:51;;;;;;;4.30;1.80;;;-0.10;99.90;;;;;;5023630;28;20120;-78
2022/12/15 08:14:17;;;;;;;1.97;1.30;;;-0.10;99.90;;;;;;5024745;28;20071;-77
2022/12/15 08:16:42;;;;;;;22.57;2.37;;;-0.10;99.90;;;;;;5023861;28;20045;-77
2022/12/15 08:19:14;;;;;;;2.77;1.50;;;-0.10;99.90;;;;;;5024378;28;20143;-77
2022/12/15 08:21:40;;;;;;;10.77;1.93;;;-0.10;99.90;;;;;;5005177;28;20056;-77
2022/12/15 08:24:07;;;;;;;1.83;1.00;;;-0.20;99.90;;;;;;5006736;28;20061;-77
2022/12/15 08:26:34;;;;;;;2.57;1.47;;;-0.20;99.90;;;;;;5016450;28;20046;-77
2022/12/15 08:29:04;;;;;;;2.40;1.57;;;-0.20;99.90;;;;;;5019115;28;20046;-77
2022/12/15 08:31:32;;;;;;;10.67;2.97;;;-0.10;99.90;;;;;;5004403;28;20038;-77
2022/12/15 08:34:00;;;;;;;3.47;1.90;;;-0.20;99.90;;;;;;5003686;28;20038;-77
2022/12/15 08:36:26;;;;;;;6.33;2.67;;;-0.20;99.90;;;;;;5003600;28;20045;-77
2022/12/15 08:38:51;;;;;;;4.27;2.90;;;-0.10;99.90;;;;;;5003876;28;20042;-77
2022/12/15 08:41:21;;;;;;;2.40;1.83;;;-0.10;99.90;;;;;;5004375;28;20499;-77
2022/12/15 08:43:48;;;;;;;4.17;2.07;;;-0.20;99.90;;;;;;5003925;28;20425;-77
2022/12/15 08:46:14;;;;;;;2.47;1.47;;;-0.10;99.90;;;;;;5004414;28;20085;-77
2022/12/15 08:48:40;;;;;;;10.13;1.67;;;-0.10;99.90;;;;;;5003866;28;20056;-77
2022/12/15 08:51:06;;;;;;;30.87;3.17;;;-0.10;99.90;;;;;;5002405;28;20323;-77
2022/12/15 08:53:32;;;;;;;5.73;1.70;;;-0.10;99.90;;;;;;5003894;28;20038;-77
2022/12/15 08:56:07;;;;;;;3.87;3.57;;;-0.10;99.90;;;;;;5003986;28;20084;-78
2022/12/15 08:58:33;;;;;;;5.17;2.27;;;-0.10;99.90;;;;;;5019150;28;20142;-77
2022/12/15 09:01:03;;;;;;;10.43;2.60;;;-0.10;99.90;;;;;;5003720;28;20137;-77
2022/12/15 09:03:29;;;;;;;6.10;2.20;;;-0.10;99.90;;;;;;5002920;28;20167;-77
2022/12/15 09:05:56;;;;;;;4.27;3.23;;;0.00;99.90;;;;;;5002529;28;20042;-77
2022/12/15 09:08:22;;;;;;;3.40;2.53;;;0.10;99.90;;;;;;4986028;28;20558;-77
2022/12/15 09:10:50;;;;;;;8.20;2.83;;;0.10;99.90;;;;;;5003379;28;20642;-77
2022/12/15 09:13:15;;;;;;;4.57;1.90;;;0.20;99.90;;;;;;5003512;28;20100;-77
2022/12/15 09:15:44;;;;;;;5.33;2.57;;;0.20;99.90;;;;;;5003551;28;20054;-77
2022/12/15 09:18:09;;;;;;;6.10;2.40;;;0.30;99.90;;;;;;5002935;28;20548;-77
2022/12/15 09:20:36;;;;;;;5.47;2.47;;;0.40;99.90;;;;;;5002357;28;20045;-78
2022/12/15 09:23:01;;;;;;;3.43;1.50;;;0.50;99.90;;;;;;5018321;28;20066;-77
2022/12/15 09:25:27;;;;;;;11.07;2.23;;;0.50;99.90;;;;;;5003488;28;20088;-77
2022/12/15 09:27:52;;;;;;;1.40;1.30;;;0.50;99.90;;;;;;5020941;28;20561;-78
2022/12/15 09:30:18;;;;;;;18.77;2.83;;;0.50;99.90;;;;;;5023136;28;20040;-77
2022/12/15 09:32:44;;;;;;;6.23;1.83;;;0.50;99.90;;;;;;5023083;28;20588;-77
2022/12/15 09:35:09;;;;;;;1.50;1.40;;;0.50;99.90;;;;;;5005509;28;20049;-77
2022/12/15 09:37:35;;;;;;;3.07;1.93;;;0.60;99.90;;;;;;5021586;28;20063;-77
2022/12/15 09:40:00;;;;;;;3.93;1.80;;;0.50;99.90;;;;;;5022217;28;20338;-78
2022/12/15 09:42:29;;;;;;;16.20;5.07;;;0.50;99.90;;;;;;5022594;28;20569;-77
2022/12/15 09:45:18;;;;;;;2.50;1.57;;;0.60;99.90;;;;;;5022803;28;20124;-77
2022/12/15 09:48:01;;;;;;;7.07;1.40;;;0.60;99.90;;;;;;5022897;28;20057;-78
2022/12/15 09:50:34;;;;;;;1.77;1.67;;;0.70;99.90;;;;;;5004056;28;20054;-77
2022/12/15 09:53:01;;;;;;;2.73;1.20;;;0.60;99.90;;;;;;5021948;28;20045;-77
2022/12/15 09:55:29;;;;;;;8.20;1.53;;;0.70;99.90;;;;;;5022920;28;20060;-78
2022/12/15 09:58:30;;;;;;;2.07;1.43;;;0.70;99.90;;;;;;5022222;28;20289;-77
2022/12/15 10:01:10;;;;;;;2.27;1.27;;;0.80;99.90;;;;;;5021841;28;20041;-78
2022/12/15 10:03:51;;;;;;;3.17;1.60;;;0.70;99.90;;;;;;5022372;28;20045;-78
2022/12/15 10:06:20;;;;;;;3.13;2.50;;;0.70;99.90;;;;;;5003927;28;20194;-78
2022/12/15 10:08:53;;;;;;;4.80;1.40;;;0.80;99.90;;;;;;5022379;28;20125;-78
2022/12/15 10:11:45;;;;;;;2.50;1.60;;;0.80;99.90;;;;;;5037669;28;20358;-78
2022/12/15 10:14:34;;;;;;;2.47;1.30;;;0.90;99.90;;;;;;5020649;28;20054;-78
2022/12/15 10:17:10;;;;;;;3.67;1.60;;;0.90;99.90;;;;;;5022050;28;20089;-78
2022/12/15 10:19:52;;;;;;;4.77;1.57;;;1.00;99.90;;;;;;5022080;28;20041;-78
2022/12/15 10:22:35;;;;;;;2.83;2.10;;;1.00;99.90;;;;;;5021529;28;20125;-78
2022/12/15 10:25:16;;;;;;;4.13;2.03;;;1.10;99.90;;;;;;5021591;28;21071;-78
2022/12/15 10:28:23;;;;;;;5.07;2.60;;;1.10;99.90;;;;;;5021842;28;20076;-78
2022/12/15 10:31:11;;;;;;;23.30;2.80;;;1.10;99.90;;;;;;5021752;28;20056;-79
2022/12/15 10:33:40;;;;;;;5.63;1.60;;;1.10;99.90;;;;;;5003751;28;20052;-78
2022/12/15 10:36:12;;;;;;;3.43;1.90;;;1.20;99.90;;;;;;5020458;28;20136;-77
2022/12/15 10:38:44;;;;;;;4.50;2.20;;;1.20;99.90;;;;;;5021528;28;20042;-78
2022/12/15 10:41:13;;;;;;;4.70;2.70;;;1.10;99.90;;;;;;5021602;28;20116;-78
2022/12/15 10:43:41;;;;;;;3.10;2.03;;;1.20;99.90;;;;;;5003469;28;20773;-78
2022/12/15 10:46:28;;;;;;;2.63;1.40;;;1.20;99.90;;;;;;5021662;28;20099;-77
2022/12/15 10:49:23;;;;;;;4.63;1.97;;;1.20;99.90;;;;;;5021262;28;20041;-78
2022/12/15 10:51:51;;;;;;;4.83;2.53;;;1.20;99.90;;;;;;5020421;28;20120;-79
2022/12/15 10:54:17;;;;;;;23.60;3.13;;;1.20;99.90;;;;;;5021466;28;20048;-77
2022/12/15 10:56:52;;;;;;;4.73;2.23;;;1.30;99.90;;;;;;5021750;28;20407;-78
2022/12/15 10:59:21;;;;;;;14.80;2.53;;;1.30;99.90;;;;;;5021687;28;20042;-78
2022/12/15 11:01:47;;;;;;;4.00;1.67;;;1.30;99.90;;;;;;5021724;28;20049;-78
2022/12/15 11:04:32;;;;;;;7.60;2.43;;;1.30;99.90;;;;;;5021005;28;20034;-78
2022/12/15 11:06:59;;;;;;;8.83;2.50;;;1.40;99.90;;;;;;5019599;28;20041;-78
2022/12/15 11:09:34;;;;;;;2.13;1.77;;;1.40;99.90;;;;;;5021107;28;20050;-77
2022/12/15 11:14:47;;;;;;;7.83;2.23;;;1.50;99.90;;;;;;5021594;28;20041;-78
2022/12/15 11:17:20;;;;;;;3.70;1.37;;;1.50;99.90;;;;;;5020699;28;20121;-78
2022/12/15 11:19:52;;;;;;;2.17;1.50;;;1.50;99.90;;;;;;5003870;28;20077;-78
2022/12/15 11:22:44;;;;;;;6.33;3.17;;;1.50;99.90;;;;;;5020847;28;20053;-78
2022/12/15 11:25:23;;;;;;;4.60;1.77;;;1.60;99.90;;;;;;5002957;28;20333;-78
2022/12/15 11:27:52;;;;;;;3.13;1.83;;;1.60;99.90;;;;;;5024639;28;20393;-79
2022/12/15 11:30:21;;;;;;;6.93;1.90;;;1.60;99.90;;;;;;5025442;28;20050;-78
2022/12/15 11:32:57;;;;;;;4.90;1.60;;;1.60;99.90;;;;;;5025770;28;20049;-78
2022/12/15 11:35:45;;;;;;;2.23;1.40;;;1.60;99.90;;;;;;5006910;28;20435;-78
2022/12/15 11:38:21;;;;;;;6.27;1.43;;;1.70;99.90;;;;;;5006729;28;20045;-78
2022/12/15 11:40:49;;;;;;;1.33;1.17;;;1.70;99.90;;;;;;5025043;28;20041;-78
2022/12/15 11:43:39;;;;;;;6.23;2.37;;;1.70;99.90;;;;;;5025199;28;20507;-78
2022/12/15 11:46:26;;;;;;;5.50;1.70;;;1.80;99.90;;;;;;5029247;28;20098;-78
2022/12/15 11:49:14;;;;;;;6.30;1.87;;;1.80;99.90;;;;;;5026625;28;20045;-79
2022/12/15 11:51:49;;;;;;;9.33;1.67;;;1.80;99.90;;;;;;5017055;28;20503;-79
2022/12/15 11:54:30;;;;;;;9.03;2.10;;;1.90;99.90;;;;;;5008615;28;20045;-80
2022/12/15 11:57:15;;;;;;;8.00;2.55;;;1.90;99.90;;;;;;5025410;28;20045;-78
2022/12/15 11:59:54;;;;;;;4.43;1.70;;;2.00;99.90;;;;;;5025952;28;20138;-80
2022/12/15 12:03:13;;;;;;;3.30;1.47;;;2.00;99.90;;;;;;5007024;28;20132;-81
2022/12/15 12:06:18;;;;;;;6.83;2.30;;;2.10;99.90;;;;;;4924275;29;20040;-81
2022/12/15 12:09:33;;;;;;;10.07;2.40;;;2.10;99.90;;;;;;4942295;29;20130;-81
2022/12/15 12:12:35;;;;;;;7.13;2.43;;;2.10;99.90;;;;;;4980974;28;20503;-81
2022/12/15 12:15:12;;;;;;;2.33;1.33;;;2.10;99.90;;;;;;5019260;28;20572;-81
2022/12/15 12:17:43;;;;;;;4.03;1.80;;;2.10;99.90;;;;;;5024291;28;20155;-81
2022/12/15 12:20:38;;;;;;;2.40;1.40;;;2.10;99.90;;;;;;5006586;28;20091;-81
2022/12/15 12:23:26;;;;;;;4.53;2.63;;;2.10;99.90;;;;;;5024467;28;20120;-81
2022/12/15 12:26:14;;;;;;;3.03;1.77;;;2.20;99.90;;;;;;5023774;28;20195;-81
2022/12/15 12:28:53;;;;;;;7.33;3.40;;;2.20;99.90;;;;;;5024556;28;20072;-81
2022/12/15 12:31:40;;;;;;;1.73;1.33;;;2.20;99.90;;;;;;5024537;28;20117;-80
2022/12/15 12:34:14;;;;;;;6.53;1.70;;;2.20;99.90;;;;;;5012250;28;20061;-81
2022/12/15 12:36:43;;;;;;;6.17;1.70;;;2.30;99.90;;;;;;5023391;28;20068;-81
2022/12/15 12:39:19;;;;;;;6.23;2.37;;;2.30;99.90;;;;;;5005411;28;20063;-82
2022/12/15 12:42:13;;;;;;;5.80;2.70;;;2.30;99.90;;;;;;5007770;28;20446;-82
2022/12/15 12:44:39;;;;;;;3.63;2.00;;;2.20;99.90;;;;;;5006759;28;20622;-82
2022/12/15 12:47:28;;;;;;;4.10;2.97;;;2.30;99.90;;;;;;5006469;28;20758;-81
2022/12/15 12:50:05;;;;;;;3.40;2.57;;;2.30;99.90;;;;;;4990359;28;20071;-82
2022/12/15 12:52:35;;;;;;;11.83;2.60;;;2.40;99.90;;;;;;5016059;28;20049;-82
2022/12/15 12:55:12;;;;;;;3.60;1.57;;;2.40;99.90;;;;;;5024406;28;20049;-82
2022/12/15 12:57:42;;;;;;;3.33;2.53;;;2.40;99.90;;;;;;5006907;28;20045;-82
2022/12/15 13:00:16;;;;;;;7.20;2.80;;;2.30;99.90;;;;;;5006035;28;20076;-82
2022/12/15 13:03:15;;;;;;;3.97;2.10;;;2.30;99.90;;;;;;5024062;28;20311;-82
2022/12/15 13:05:43;;;;;;;14.17;2.73;;;2.40;99.90;;;;;;5022943;28;20049;-82
2022/12/15 13:08:08;;;;;;;4.60;2.83;;;2.40;99.90;;;;;;5005782;28;20041;-82
2022/12/15 13:10:39;;;;;;;4.77;1.83;;;2.40;99.90;;;;;;5023452;28;20627;-82
2022/12/15 13:13:16;;;;;;;2.93;2.67;;;2.50;99.90;;;;;;5005620;28;20231;-82
2022/12/15 13:15:47;;;;;;;2.10;1.97;;;2.50;99.90;;;;;;5023477;28;20053;-82
2022/12/15 13:18:19;;;;;;;17.27;2.13;;;2.50;99.90;;;;;;5005484;28;20112;-82
2022/12/15 13:20:47;;;;;;;3.80;2.08;;;2.50;99.90;;;;;;5038645;28;20316;-82
2022/12/15 13:23:22;;;;;;;1.70;1.20;;;2.60;99.90;;;;;;5023446;28;20049;-82
2022/12/15 13:25:56;;;;;;;18.53;2.27;;;2.60;99.90;;;;;;5006049;28;20080;-82
2022/12/15 13:28:46;;;;;;;3.63;2.03;;;2.60;99.90;;;;;;5005771;28;20046;-82
2022/12/15 13:31:17;;;;;;;2.83;1.27;;;2.70;99.90;;;;;;5023136;28;20132;-82
2022/12/15 13:33:51;;;;;;;3.47;1.83;;;2.70;99.90;;;;;;5023468;28;20069;-83
2022/12/15 13:36:35;;;;;;;5.97;1.80;;;2.70;99.90;;;;;;5021197;28;20288;-82
2022/12/15 13:39:21;;;;;;;3.03;1.92;;;2.70;99.90;;;;;;5021612;28;20048;-82
2022/12/15 13:41:53;;;;;;;8.17;2.87;;;2.70;99.90;;;;;;5005217;28;20124;-82
2022/12/15 13:44:39;;;;;;;3.38;1.42;;;2.70;99.90;;;;;;4988856;28;20400;-83
2022/12/15 13:47:29;;;;;;;4.82;2.85;;;2.60;99.90;;;;;;4977070;28;20049;-82
2022/12/15 13:50:11;;;;;;;3.90;3.37;;;2.60;99.90;;;;;;5001718;28;20133;-83
2022/12/15 13:52:53;;;;;;;6.63;2.20;;;2.50;99.90;;;;;;5021968;28;20084;-83
2022/12/15 13:55:24;;;;;;;8.18;2.90;;;2.60;99.90;;;;;;4979528;28;20077;-82
2022/12/15 13:58:16;;;;;;;14.70;4.47;;;2.60;99.90;;;;;;5021655;28;20049;-81
2022/12/15 14:00:56;;;;;;;15.27;4.78;;;2.60;99.90;;;;;;5023500;28;20438;-82
2022/12/15 14:03:22;;;;;;;9.53;3.57;;;2.60;99.90;;;;;;5022641;28;20088;-82
2022/12/15 14:05:53;;;;;;;3.63;2.30;;;2.50;99.90;;;;;;5021860;28;20045;-82
2022/12/15 14:08:21;;;;;;;6.70;2.70;;;2.50;99.90;;;;;;5001800;28;20120;-82
2022/12/15 14:10:50;;;;;;;4.50;1.30;;;2.40;99.90;;;;;;5004585;28;20033;-83
2022/12/15 14:13:32;;;;;;;3.73;1.43;;;2.40;99.90;;;;;;5004980;28;20120;-83
2022/12/15 14:16:06;;;;;;;0.95;0.95;;;2.30;99.90;;;;;;5003653;28;20145;-82
2022/12/15 14:18:40;;;;;;;2.00;0.77;;;2.30;99.90;;;;;;5004264;28;20316;-82
2022/12/15 14:21:21;;;;;;;3.90;1.10;;;2.30;99.90;;;;;;5002543;28;20125;-81
2022/12/15 14:23:47;;;;;;;1.47;0.83;;;2.30;99.90;;;;;;5004193;28;20053;-81
2022/12/15 14:26:14;;;;;;;1.83;1.17;;;2.30;99.90;;;;;;5021784;28;20049;-82
2022/12/15 14:28:42;;;;;;;2.53;0.90;;;2.20;99.90;;;;;;5022603;28;20120;-82
2022/12/15 14:31:12;;;;;;;5.67;0.73;;;2.20;99.90;;;;;;5020615;28;20036;-81
2022/12/15 14:33:42;;;;;;;2.30;0.90;;;2.20;99.90;;;;;;5022553;28;20045;-81
2022/12/15 14:36:11;;;;;;;2.07;0.80;;;2.20;99.90;;;;;;5020745;28;20092;-81
2022/12/15 14:38:58;;;;;;;0.40;0.40;;;2.20;99.90;;;;;;5004336;28;20037;-81
2022/12/15 14:41:36;;;;;;;2.13;1.23;;;2.10;99.90;;;;;;5021408;28;20033;-82
2022/12/15 14:44:35;;;;;;;1.40;1.10;;;2.10;99.90;;;;;;5004260;28;20103;-81
2022/12/15 14:47:04;;;;;;;11.90;1.00;;;2.00;99.90;;;;;;4997640;28;20485;-82
2022/12/15 14:49:38;;;;;;;1.57;1.07;;;2.00;99.90;;;;;;5020569;28;20037;-81
2022/12/15 14:52:06;;;;;;;4.33;0.90;;;2.00;99.90;;;;;;5002876;28;20152;-80
2022/12/15 14:54:37;;;;;;;2.87;0.77;;;2.00;99.90;;;;;;5020819;28;20431;-81
2022/12/15 14:57:08;;;;;;;1.67;0.60;;;2.00;99.90;;;;;;5019898;28;20033;-81
2022/12/15 14:59:34;;;;;;;1.33;0.60;;;2.00;99.90;;;;;;5004525;28;20099;-81
2022/12/15 15:02:18;;;;;;;2.97;1.13;;;1.90;99.90;;;;;;5002977;28;20038;-81
2022/12/15 15:05:06;;;;;;;0.63;0.57;;;2.00;99.90;;;;;;5003336;28;20128;-82
2022/12/15 15:07:34;;;;;;;1.17;0.53;;;2.00;99.90;;;;;;5003506;28;20504;-81
2022/12/15 15:10:01;;;;;;;1.50;0.70;;;2.00;99.90;;;;;;5021450;28;20357;-81
2022/12/15 15:12:53;;;;;;;0.97;0.90;;;2.00;99.90;;;;;;4987530;28;20087;-80
2022/12/15 15:15:23;;;;;;;2.22;0.73;;;2.00;99.90;;;;;;4997926;28;20077;-81
2022/12/15 15:17:59;;;;;;;2.37;0.73;;;2.00;99.90;;;;;;5000423;28;20048;-81
2022/12/15 15:20:30;;;;;;;0.47;0.43;;;1.90;99.90;;;;;;4987370;28;20045;-81
2022/12/15 15:23:16;;;;;;;2.75;0.77;;;1.90;99.90;;;;;;5021484;28;20117;-81
2022/12/15 15:25:49;;;;;;;2.00;0.87;;;1.90;99.90;;;;;;5004559;28;20029;-81
2022/12/15 15:28:17;;;;;;;2.40;0.87;;;1.90;99.90;;;;;;5003513;28;20053;-81
2022/12/15 15:30:46;;;;;;;1.47;0.70;;;1.80;99.90;;;;;;5021282;28;20057;-80
2022/12/15 15:33:12;;;;;;;1.97;1.17;;;1.80;99.90;;;;;;5003754;28;20038;-81
2022/12/15 15:35:40;;;;;;;2.87;1.20;;;1.80;99.90;;;;;;5003566;28;20052;-82
2022/12/15 15:38:11;;;;;;;1.97;1.33;;;1.80;99.90;;;;;;5002859;28;20045;-81
2022/12/15 15:40:37;;;;;;;4.00;1.53;;;1.70;99.90;;;;;;4985500;28;20386;-81